»·PEaware :: N972MK KPRC-KSEZ

N972MK :: KPRC-KSEZ

FLIGHT INFORMATION

Flight Status: Arrived
Operator: Privately registered:
United States
More flights under this callsign
Pilot: Martin K. (31672)
Aircraft: PIPER PA-24 COMMANCHE
(PA24)
More flights by this aircraft type
Origin: KPRC Love
United States
Destination: KSEZ Sedona
United States
More flights between these airports :: More routes between these airports
Route:
File this flight plan on PilotEdge
Remarks:
Altitude:
(Current/Filed)
9,500ft
Speed:
(Current/Filed)
150kts
Departed: 28-Sep-23 11:02 AM
Arrived: 28-Sep-23 11:26 AM
Distance/Time
Traveled:
33nm/0:24
Distance/Time
To Go:
Arrived

Flight Plot

Page will automatically refresh every two minutes.

Flight plan parsing failed; only flown route is shown


Map Options




Map Legend


Flown Route
Filed Route
Departure Airport
Arrival Airport
Navaid (VOR, NDB)
Fix

Horizontal Profiles

Position Reports

Time Latitude Longitude Heading Altitude Ground
Speed
28-Sep-23 10:31 34.646656 -112.424944 219 5025ft 0kts
28-Sep-23 10:32 34.646656 -112.424944 219 5025ft 0kts
28-Sep-23 10:33 34.646656 -112.424944 219 5025ft 0kts
28-Sep-23 10:34 34.646656 -112.424944 219 5025ft 0kts
28-Sep-23 10:35 34.646656 -112.424944 219 5025ft 0kts
28-Sep-23 10:36 34.646656 -112.424944 219 5025ft 0kts
28-Sep-23 10:37 34.646656 -112.424944 219 5025ft 0kts
28-Sep-23 10:38 34.646656 -112.424944 219 5025ft 0kts
28-Sep-23 10:39 34.646656 -112.424944 219 5025ft 0kts
28-Sep-23 10:40 34.646656 -112.424944 219 5025ft 0kts
28-Sep-23 10:41 34.646656 -112.424944 219 5025ft 0kts
28-Sep-23 10:42 34.646656 -112.424944 219 5025ft 0kts
28-Sep-23 10:43 34.646656 -112.424944 219 5025ft 0kts
28-Sep-23 10:44 34.646656 -112.424944 219 5025ft 0kts
28-Sep-23 10:45 34.646656 -112.424944 219 5025ft 0kts
28-Sep-23 10:46 34.646656 -112.424944 219 5025ft 0kts
28-Sep-23 10:47 34.646656 -112.424944 219 5025ft 0kts
28-Sep-23 10:48 34.646656 -112.424944 219 5025ft 0kts
28-Sep-23 10:49 34.646656 -112.424944 219 5025ft 0kts
28-Sep-23 10:50 34.646656 -112.424944 219 5025ft 0kts
28-Sep-23 10:51 34.646656 -112.424944 219 5025ft 0kts
28-Sep-23 10:52 34.646624 -112.424986 236 5025ft 2kts
28-Sep-23 10:53 34.649326 -112.423205 40 5023ft 17kts
28-Sep-23 10:54 34.653460 -112.418855 39 5004ft 21kts
28-Sep-23 10:55 34.657176 -112.414892 40 4987ft 15kts
28-Sep-23 10:56 34.660582 -112.410576 41 4960ft 19kts
28-Sep-23 10:57 34.661582 -112.410600 312 4956ft 0kts
28-Sep-23 10:58 34.661582 -112.410600 312 4956ft 0kts
28-Sep-23 10:59 34.661582 -112.410600 312 4956ft 0kts
28-Sep-23 11:00 34.661607 -112.410633 312 4956ft 3kts
28-Sep-23 11:01 34.654569 -112.419386 221 5037ft 65kts
28-Sep-23 11:02 34.639636 -112.433079 180 5545ft 69kts
28-Sep-23 11:03 34.628147 -112.412743 102 6004ft 85kts
28-Sep-23 11:04 34.627293 -112.383869 101 6343ft 87kts
28-Sep-23 11:05 34.630881 -112.352837 85 6838ft 100kts
28-Sep-23 11:06 34.637763 -112.319185 87 7289ft 100kts
28-Sep-23 11:07 34.646153 -112.286067 73 7748ft 104kts
28-Sep-23 11:08 34.659506 -112.254220 68 8166ft 107kts
28-Sep-23 11:09 34.672519 -112.222069 63 8559ft 109kts
28-Sep-23 11:10 34.689288 -112.191518 67 9157ft 111kts
28-Sep-23 11:11 34.708644 -112.155561 63 9721ft 135kts
28-Sep-23 11:12 34.725880 -112.110525 73 9505ft 156kts
28-Sep-23 11:13 34.743065 -112.061718 74 8865ft 156kts
28-Sep-23 11:14 34.761503 -112.014013 61 8378ft 156kts
28-Sep-23 11:15 34.786782 -111.971472 61 7975ft 153kts
28-Sep-23 11:16 34.807565 -111.926768 61 7525ft 152kts
28-Sep-23 11:17 34.829079 -111.881482 79 6779ft 155kts
28-Sep-23 11:18 34.841665 -111.835571 76 6190ft 139kts
28-Sep-23 11:19 34.861585 -111.806381 47 5928ft 96kts
28-Sep-23 11:20 34.869466 -111.781142 136 5654ft 94kts
28-Sep-23 11:21 34.849103 -111.787815 217 4830ft 74kts
28-Sep-23 11:22 34.836003 -111.787901 70 5325ft 99kts
28-Sep-23 11:23 34.854205 -111.759834 46 5464ft 105kts
28-Sep-23 11:24 34.855074 -111.780401 219 4932ft 94kts
28-Sep-23 11:25 34.848470 -111.790280 354 4777ft 9kts
28-Sep-23 11:26 34.848964 -111.790072 314 4782ft 0kts
28-Sep-23 11:27 34.848964 -111.790072 314 4782ft 0kts
28-Sep-23 11:28 34.848964 -111.790072 314 4782ft 0kts

Navigation Log

Ident Type
Flight plan parsing failed, navigation log unavailable